createdAt,value
2023-03-18T00:01:06.939Z,17.52
2023-03-18T00:03:36.914Z,22.00
2023-03-18T00:06:08.275Z,20.80
2023-03-18T00:08:37.142Z,21.02
2023-03-18T00:11:05.486Z,26.50
2023-03-18T00:13:34.056Z,20.80
2023-03-18T00:16:03.666Z,19.23
2023-03-18T00:18:33.690Z,18.25
2023-03-18T00:21:01.424Z,20.98
2023-03-18T00:23:28.784Z,18.27
2023-03-18T00:25:57.731Z,19.10
2023-03-18T00:28:25.512Z,19.33
2023-03-18T00:30:54.518Z,18.05
2023-03-18T00:33:21.916Z,18.67
2023-03-18T00:35:50.142Z,17.80
2023-03-18T00:38:21.213Z,21.55
2023-03-18T00:41:00.646Z,22.30
2023-03-18T00:43:33.199Z,21.65
2023-03-18T00:46:01.575Z,20.30
2023-03-18T00:48:29.278Z,21.88
2023-03-18T00:50:57.123Z,21.17
2023-03-18T00:53:25.519Z,25.80
2023-03-18T00:55:53.242Z,24.15
2023-03-18T00:58:20.703Z,26.25
2023-03-18T01:00:48.306Z,27.83
2023-03-18T01:03:15.630Z,26.73
2023-03-18T01:05:43.392Z,27.02
2023-03-18T01:08:11.805Z,24.00
2023-03-18T01:10:39.000Z,20.77
2023-03-18T01:13:06.119Z,20.88
2023-03-18T01:15:34.144Z,24.35
2023-03-18T01:18:01.848Z,20.92
2023-03-18T01:20:29.774Z,23.63
2023-03-18T01:22:58.619Z,27.95
2023-03-18T01:25:28.153Z,25.25
2023-03-18T01:27:55.470Z,22.80
2023-03-18T01:30:23.296Z,22.60
2023-03-18T01:32:51.122Z,27.63
2023-03-18T01:35:19.670Z,25.05
2023-03-18T01:37:49.088Z,26.52
2023-03-18T01:40:17.436Z,25.40
2023-03-18T01:42:57.513Z,19.45
2023-03-18T01:47:59.660Z,18.98
2023-03-18T01:50:37.383Z,18.00
2023-03-18T01:53:11.943Z,18.20
2023-03-18T01:55:40.552Z,18.70
2023-03-18T01:58:17.943Z,19.85
2023-03-18T02:00:55.033Z,21.67
2023-03-18T02:03:22.270Z,22.27
2023-03-18T02:05:50.326Z,31.27
2023-03-18T02:08:18.273Z,24.77
2023-03-18T02:10:45.930Z,36.67
2023-03-18T02:13:15.874Z,23.58
2023-03-18T02:16:02.887Z,25.67
2023-03-18T02:21:38.960Z,29.40
2023-03-18T02:24:28.231Z,23.90
2023-03-18T02:27:28.649Z,24.23
2023-03-18T02:30:01.021Z,23.52
2023-03-18T02:32:35.131Z,22.73
2023-03-18T02:35:08.430Z,24.23
2023-03-18T02:37:38.667Z,21.58
2023-03-18T02:40:30.715Z,23.67
2023-03-18T02:43:23.679Z,25.33
2023-03-18T02:46:13.985Z,25.30
2023-03-18T02:48:44.849Z,32.05
2023-03-18T02:51:15.542Z,38.75
2023-03-18T02:53:44.849Z,33.10
2023-03-18T02:56:13.560Z,31.50
2023-03-18T03:01:11.674Z,40.67
2023-03-18T03:03:39.157Z,37.20
2023-03-18T03:06:08.201Z,36.97
2023-03-18T03:08:36.110Z,33.70
2023-03-18T03:11:05.436Z,38.58
2023-03-18T03:13:35.910Z,30.45
2023-03-18T03:16:03.475Z,33.30
2023-03-18T03:18:30.796Z,23.83
2023-03-18T03:20:58.340Z,22.98
2023-03-18T03:23:25.623Z,23.67
2023-03-18T03:25:52.867Z,22.70
2023-03-18T03:28:21.222Z,18.30
2023-03-18T03:30:48.885Z,17.98
2023-03-18T03:33:16.634Z,18.48
2023-03-18T03:35:43.992Z,16.67
2023-03-18T03:38:12.143Z,18.45
2023-03-18T03:40:40.267Z,22.00
2023-03-18T03:43:07.703Z,19.00
2023-03-18T03:45:34.892Z,18.70
2023-03-18T03:48:02.031Z,20.95
2023-03-18T03:50:29.805Z,21.02
2023-03-18T03:52:57.779Z,20.55
2023-03-18T03:57:55.882Z,16.88
2023-03-18T04:00:24.917Z,18.92
2023-03-18T04:02:53.535Z,17.77
2023-03-18T04:05:24.043Z,14.13
2023-03-18T04:07:52.892Z,15.57
2023-03-18T04:10:28.768Z,15.07
2023-03-18T04:12:56.057Z,18.15
2023-03-18T04:15:23.267Z,14.18
2023-03-18T04:17:54.118Z,13.73
2023-03-18T04:20:21.417Z,15.07
2023-03-18T04:22:49.208Z,14.93
2023-03-18T04:25:19.442Z,13.15
2023-03-18T04:27:48.472Z,17.10
2023-03-18T04:30:17.343Z,15.02
2023-03-18T04:32:55.994Z,14.47
2023-03-18T04:35:23.279Z,13.30
2023-03-18T04:37:52.021Z,17.10
2023-03-18T04:40:20.771Z,17.10
2023-03-18T04:42:48.022Z,19.95
2023-03-18T04:45:18.083Z,21.20
2023-03-18T04:47:45.778Z,18.90
2023-03-18T04:50:14.613Z,19.10
2023-03-18T04:52:44.541Z,17.90
2023-03-18T04:55:17.324Z,18.95
2023-03-18T04:57:45.184Z,16.08
2023-03-18T05:00:21.637Z,20.02
2023-03-18T05:02:52.664Z,23.55
2023-03-18T05:05:23.579Z,21.52
2023-03-18T05:07:52.129Z,21.73
2023-03-18T05:12:50.021Z,17.55
2023-03-18T05:15:25.425Z,15.60
2023-03-18T05:17:55.848Z,15.50
2023-03-18T05:20:23.301Z,17.67
2023-03-18T05:22:51.801Z,17.30
2023-03-18T05:25:31.216Z,17.80
2023-03-18T05:27:59.019Z,16.25
2023-03-18T05:30:36.499Z,17.75
2023-03-18T05:35:42.982Z,17.50
2023-03-18T05:38:10.360Z,26.25
2023-03-18T05:40:37.866Z,30.15
2023-03-18T05:43:16.158Z,23.92
2023-03-18T05:45:49.621Z,19.30
2023-03-18T05:48:19.375Z,21.35
2023-03-18T05:50:55.178Z,19.73
2023-03-18T05:53:26.177Z,19.80
2023-03-18T05:56:02.619Z,22.25
2023-03-18T05:58:32.130Z,21.70
2023-03-18T06:01:15.952Z,19.95
2023-03-18T06:03:43.920Z,24.30
2023-03-18T06:06:11.906Z,22.95
2023-03-18T06:08:40.682Z,20.63
2023-03-18T06:11:07.893Z,21.55
2023-03-18T06:13:35.313Z,23.20
2023-03-18T06:16:03.407Z,22.52
2023-03-18T06:18:31.319Z,22.65
2023-03-18T06:20:59.266Z,21.25
2023-03-18T06:23:27.000Z,21.83
2023-03-18T06:25:55.774Z,22.63
2023-03-18T06:28:29.567Z,20.45
2023-03-18T06:31:02.164Z,19.17
2023-03-18T06:33:30.055Z,20.15
2023-03-18T06:35:58.180Z,21.73
2023-03-18T06:38:26.749Z,22.30
2023-03-18T06:40:56.797Z,23.20
2023-03-18T06:43:24.126Z,21.70
2023-03-18T06:45:52.061Z,24.05
2023-03-18T06:48:19.808Z,23.25
2023-03-18T06:50:49.185Z,28.55
2023-03-18T06:53:23.701Z,26.27
2023-03-18T06:55:51.064Z,26.65
2023-03-18T06:58:21.785Z,26.15
2023-03-18T07:00:59.830Z,27.77
2023-03-18T07:03:32.335Z,28.77
2023-03-18T07:06:00.734Z,23.85
2023-03-18T07:08:28.752Z,23.38
2023-03-18T07:10:57.685Z,23.55
2023-03-18T07:13:26.210Z,23.33
2023-03-18T07:15:55.886Z,20.88
2023-03-18T07:18:24.324Z,22.27
2023-03-18T07:20:51.993Z,19.45
2023-03-18T07:23:21.358Z,23.33
2023-03-18T07:25:49.605Z,20.35
2023-03-18T07:28:19.859Z,21.58
2023-03-18T07:30:47.314Z,18.48
2023-03-18T07:33:15.304Z,16.20
2023-03-18T07:35:43.362Z,18.35
2023-03-18T07:38:12.206Z,18.38
2023-03-18T07:40:39.538Z,20.38
2023-03-18T07:43:06.895Z,19.52
2023-03-18T07:45:34.419Z,20.13
2023-03-18T07:48:01.715Z,20.20
2023-03-18T07:50:29.180Z,22.13
2023-03-18T07:52:56.517Z,18.73
2023-03-18T07:55:23.895Z,28.13
2023-03-18T07:57:51.463Z,20.27
2023-03-18T08:00:19.291Z,25.73
2023-03-18T08:02:46.491Z,23.55
2023-03-18T08:05:15.200Z,22.02
2023-03-18T08:07:43.064Z,23.30
2023-03-18T08:10:11.999Z,20.90
2023-03-18T08:12:52.140Z,21.83
2023-03-18T08:15:21.904Z,24.52
2023-03-18T08:17:50.665Z,23.60
2023-03-18T08:20:18.264Z,27.85
2023-03-18T08:22:46.126Z,29.02
2023-03-18T08:25:14.100Z,32.75
2023-03-18T08:27:41.813Z,35.00
2023-03-18T08:30:10.716Z,35.67
2023-03-18T08:32:37.913Z,41.03
2023-03-18T08:35:06.040Z,39.15
2023-03-18T08:37:33.348Z,44.08
2023-03-18T08:40:01.493Z,43.10
2023-03-18T08:42:28.906Z,40.13
2023-03-18T08:44:56.394Z,42.92
2023-03-18T08:47:24.642Z,43.55
2023-03-18T08:49:51.750Z,36.60
2023-03-18T08:52:19.354Z,33.60
2023-03-18T08:54:47.271Z,27.58
2023-03-18T08:57:15.441Z,31.05
2023-03-18T08:59:42.898Z,29.13
2023-03-18T09:02:17.907Z,26.67
2023-03-18T09:04:47.571Z,22.92
2023-03-18T09:07:16.891Z,23.67
2023-03-18T09:09:45.717Z,23.98
2023-03-18T09:12:13.720Z,23.35
2023-03-18T09:14:42.971Z,22.52
2023-03-18T09:17:10.253Z,20.88
2023-03-18T09:19:38.051Z,19.45
2023-03-18T09:22:05.376Z,19.35
2023-03-18T09:24:32.628Z,18.42
2023-03-18T09:26:59.858Z,15.60
2023-03-18T09:29:27.299Z,12.20
2023-03-18T09:31:55.002Z,15.45
2023-03-18T09:34:22.740Z,12.60
2023-03-18T09:36:53.042Z,13.35
2023-03-18T09:39:21.350Z,10.85
2023-03-18T09:42:35.749Z,8.80
2023-03-18T09:45:16.921Z,6.10
2023-03-18T09:48:02.784Z,6.35
2023-03-18T09:50:44.050Z,8.38
2023-03-18T09:53:29.002Z,7.60
2023-03-18T09:56:01.556Z,8.80
2023-03-18T09:58:44.150Z,8.65
2023-03-18T10:01:13.733Z,7.97
2023-03-18T10:06:23.551Z,7.32
2023-03-18T10:09:26.550Z,7.70
2023-03-18T10:12:23.267Z,7.22
2023-03-18T10:15:39.234Z,7.25
2023-03-18T10:18:37.628Z,7.47
2023-03-18T10:21:04.792Z,7.47
2023-03-18T10:23:41.267Z,5.60
2023-03-18T10:26:26.488Z,5.88
2023-03-18T10:30:01.084Z,5.18
2023-03-18T10:33:17.251Z,1.58
2023-03-18T10:35:59.385Z,2.83
2023-03-18T10:38:35.735Z,2.33
2023-03-18T10:41:28.897Z,1.45
2023-03-18T10:44:01.276Z,2.00
2023-03-18T10:46:28.751Z,2.42
2023-03-18T10:49:09.876Z,1.90
2023-03-18T10:51:53.984Z,2.45
2023-03-18T10:54:36.581Z,2.97
2023-03-18T10:57:04.147Z,3.42
2023-03-18T10:59:32.879Z,2.53
2023-03-18T11:02:13.856Z,3.35
2023-03-18T11:05:42.206Z,1.95
2023-03-18T11:08:34.449Z,2.92
2023-03-18T11:11:34.031Z,2.30
2023-03-18T11:16:44.463Z,2.72
2023-03-18T11:20:00.315Z,1.90
2023-03-18T11:22:29.007Z,2.90
2023-03-18T11:25:25.829Z,2.90
2023-03-18T11:28:03.294Z,3.13
2023-03-18T11:30:47.986Z,2.85
2023-03-18T11:33:17.142Z,2.15
2023-03-18T11:35:54.534Z,2.85
2023-03-18T11:38:28.116Z,3.05
2023-03-18T11:41:13.854Z,1.98
2023-03-18T11:44:02.810Z,2.67
2023-03-18T11:46:45.173Z,2.65
2023-03-18T11:49:22.247Z,2.38
2023-03-18T11:52:10.433Z,1.65
2023-03-18T11:55:13.531Z,2.30
2023-03-18T11:58:19.703Z,1.70
2023-03-18T12:01:11.041Z,1.88
2023-03-18T12:04:07.289Z,1.83
2023-03-18T12:07:13.096Z,2.17
2023-03-18T12:10:04.941Z,1.60
2023-03-18T12:12:47.047Z,2.13
2023-03-18T12:15:57.582Z,3.25
2023-03-18T12:19:06.348Z,2.53
2023-03-18T12:22:08.449Z,1.80
2023-03-18T12:24:56.710Z,2.60
2023-03-18T12:27:52.862Z,2.20
2023-03-18T12:30:44.090Z,1.98
2023-03-18T12:33:56.924Z,2.08
2023-03-18T12:37:01.134Z,2.38
2023-03-18T12:39:30.598Z,2.00
2023-03-18T12:42:14.511Z,1.75
2023-03-18T12:44:51.741Z,8.10
2023-03-18T12:47:36.586Z,12.45
2023-03-18T12:50:32.078Z,3.85
2023-03-18T12:53:36.158Z,2.45
2023-03-18T12:56:18.155Z,5.85
2023-03-18T12:59:21.438Z,6.32
2023-03-18T13:02:38.076Z,2.00
2023-03-18T13:05:26.942Z,4.43
2023-03-18T13:08:16.457Z,2.58
2023-03-18T13:10:49.631Z,3.28
2023-03-18T13:13:17.322Z,2.75
2023-03-18T13:15:50.978Z,2.85
2023-03-18T13:18:39.117Z,2.45
2023-03-18T13:21:08.397Z,2.13
2023-03-18T13:24:07.539Z,1.80
2023-03-18T13:27:28.182Z,2.03
2023-03-18T13:30:33.705Z,1.85
2023-03-18T13:33:47.053Z,1.60
2023-03-18T13:36:53.196Z,2.92
2023-03-18T13:39:58.193Z,2.80
2023-03-18T13:42:30.359Z,3.08
2023-03-18T13:45:21.865Z,1.95
2023-03-18T13:48:07.013Z,2.30
2023-03-18T13:50:39.467Z,2.15
2023-03-18T13:53:28.497Z,2.42
2023-03-18T13:55:55.674Z,1.88
2023-03-18T13:58:47.048Z,2.63
2023-03-18T14:01:28.676Z,2.28
2023-03-18T14:04:26.523Z,2.00
2023-03-18T14:07:30.800Z,2.42
2023-03-18T14:10:17.121Z,2.85
2023-03-18T14:12:49.356Z,2.60
2023-03-18T14:15:35.854Z,2.15
2023-03-18T14:18:03.828Z,3.17
2023-03-18T14:20:42.415Z,2.38
2023-03-18T14:23:42.161Z,2.70
2023-03-18T14:26:21.565Z,2.58
2023-03-18T14:31:39.380Z,2.80
2023-03-18T14:34:18.710Z,3.00
2023-03-18T14:36:51.969Z,3.20
2023-03-18T14:39:40.919Z,3.45
2023-03-18T14:42:31.238Z,3.40
2023-03-18T14:45:23.052Z,3.63
2023-03-18T14:47:58.998Z,3.08
2023-03-18T14:51:00.183Z,3.97
2023-03-18T14:53:52.172Z,3.08
2023-03-18T14:56:31.094Z,4.70
2023-03-18T14:58:58.363Z,5.65
2023-03-18T15:01:38.338Z,15.55
2023-03-18T15:04:10.957Z,3.45
2023-03-18T15:06:40.381Z,5.65
2023-03-18T15:09:20.536Z,4.07
2023-03-18T15:11:48.380Z,3.47
2023-03-18T15:14:31.445Z,4.00
2023-03-18T15:17:03.994Z,3.50
2023-03-18T15:19:32.085Z,4.43
2023-03-18T15:22:05.223Z,5.95
2023-03-18T15:24:33.108Z,3.92
2023-03-18T15:27:13.901Z,4.13
2023-03-18T15:29:58.588Z,4.35
2023-03-18T15:32:45.184Z,4.47
2023-03-18T15:35:24.070Z,5.18
2023-03-18T15:38:21.488Z,5.10
2023-03-18T15:40:57.623Z,4.85
2023-03-18T15:43:46.754Z,4.72
2023-03-18T15:46:27.942Z,22.73
2023-03-18T15:48:57.270Z,34.25
2023-03-18T15:51:43.126Z,18.20
2023-03-18T15:54:29.200Z,5.65
2023-03-18T15:56:58.677Z,14.38
2023-03-18T15:59:30.601Z,5.22
2023-03-18T16:01:59.086Z,4.78
2023-03-18T16:04:32.189Z,6.55
2023-03-18T16:06:59.664Z,6.35
2023-03-18T16:09:27.430Z,12.57
2023-03-18T16:12:03.325Z,7.75
2023-03-18T16:14:41.763Z,11.90
2023-03-18T16:17:21.063Z,5.35
2023-03-18T16:19:53.553Z,15.82
2023-03-18T16:22:21.426Z,6.43
2023-03-18T16:24:49.205Z,8.60
2023-03-18T16:27:38.846Z,5.82
2023-03-18T16:32:43.419Z,5.00
2023-03-18T16:35:15.660Z,5.82
2023-03-18T16:37:44.496Z,7.82
2023-03-18T16:40:25.079Z,8.55
2023-03-18T16:42:53.149Z,6.88
2023-03-18T16:45:33.082Z,5.40
2023-03-18T16:48:07.045Z,8.75
2023-03-18T16:50:37.905Z,7.70
2023-03-18T16:53:16.742Z,10.55
2023-03-18T16:55:46.563Z,11.77
2023-03-18T16:58:17.892Z,13.05
2023-03-18T17:00:49.066Z,13.43
2023-03-18T17:03:18.758Z,7.03
2023-03-18T17:08:19.159Z,8.13
2023-03-18T17:10:49.286Z,8.27
2023-03-18T17:13:28.038Z,7.40
2023-03-18T17:15:55.648Z,9.43
2023-03-18T17:18:24.632Z,9.20
2023-03-18T17:20:52.092Z,8.80
2023-03-18T17:23:27.303Z,7.63
2023-03-18T17:26:00.488Z,6.80
2023-03-18T17:28:38.654Z,8.70
2023-03-18T17:31:06.125Z,7.78
2023-03-18T17:33:36.537Z,8.00
2023-03-18T17:36:06.421Z,6.32
2023-03-18T17:38:34.664Z,4.97
2023-03-18T17:41:13.144Z,8.73
2023-03-18T17:43:41.523Z,39.72
2023-03-18T17:46:09.121Z,6.45
2023-03-18T17:48:37.843Z,4.80
2023-03-18T17:51:08.581Z,7.20
2023-03-18T17:53:43.451Z,5.50
2023-03-18T17:56:14.354Z,4.43
2023-03-18T17:58:47.627Z,5.25
2023-03-18T18:01:23.813Z,5.10
2023-03-18T18:03:51.619Z,6.20
2023-03-18T18:06:23.164Z,7.25
2023-03-18T18:08:51.246Z,5.03
2023-03-18T18:11:43.732Z,4.60
2023-03-18T18:14:28.439Z,4.88
2023-03-18T18:16:56.353Z,5.45
2023-03-18T18:19:24.087Z,4.93
2023-03-18T18:21:52.550Z,7.78
2023-03-18T18:24:27.691Z,8.32
2023-03-18T18:26:55.703Z,7.22
2023-03-18T18:29:27.685Z,8.70
2023-03-18T18:31:55.167Z,14.02
2023-03-18T18:34:22.610Z,7.75
2023-03-18T18:36:50.576Z,5.80
2023-03-18T18:39:18.613Z,7.07
2023-03-18T18:41:46.208Z,8.13
2023-03-18T18:44:14.183Z,7.90
2023-03-18T18:46:41.591Z,6.15
2023-03-18T18:49:23.607Z,6.13
2023-03-18T18:51:54.191Z,8.63
2023-03-18T18:54:23.560Z,9.68
2023-03-18T18:56:51.655Z,8.25
2023-03-18T18:59:28.177Z,9.85
2023-03-18T19:01:56.407Z,10.15
2023-03-18T19:04:24.364Z,10.82
2023-03-18T19:06:53.256Z,10.95
2023-03-18T19:09:24.075Z,8.98
2023-03-18T19:11:52.961Z,12.07
2023-03-18T19:14:25.229Z,15.23
2023-03-18T19:16:55.905Z,12.98
2023-03-18T19:19:31.911Z,11.13
2023-03-18T19:21:59.892Z,9.63
2023-03-18T19:24:32.575Z,9.65
2023-03-18T19:27:19.795Z,9.27
2023-03-18T19:29:47.248Z,8.82
2023-03-18T19:32:18.496Z,9.50
2023-03-18T19:34:51.184Z,10.30
2023-03-18T19:37:32.057Z,12.25
2023-03-18T19:40:01.672Z,8.60
2023-03-18T19:44:56.769Z,8.40
2023-03-18T19:47:29.446Z,8.30
2023-03-18T19:49:56.840Z,9.63
2023-03-18T19:52:26.827Z,10.52
2023-03-18T19:54:54.923Z,11.02
2023-03-18T19:57:31.191Z,9.85
2023-03-18T20:00:00.618Z,8.65
2023-03-18T20:02:31.453Z,7.95
2023-03-18T20:05:02.078Z,8.52
2023-03-18T20:07:32.126Z,10.88
2023-03-18T20:09:59.692Z,9.63
2023-03-18T20:12:42.757Z,9.68
2023-03-18T20:15:26.393Z,10.68
2023-03-18T20:17:54.531Z,11.02
2023-03-18T20:20:32.353Z,9.38
2023-03-18T20:23:04.549Z,8.65
2023-03-18T20:25:41.771Z,8.68
2023-03-18T20:28:19.783Z,8.40
2023-03-18T20:30:52.063Z,10.02
2023-03-18T20:33:21.995Z,8.27
2023-03-18T20:35:52.228Z,9.60
2023-03-18T20:38:39.164Z,10.73
2023-03-18T20:41:07.230Z,9.32
2023-03-18T20:43:34.532Z,8.52
2023-03-18T20:46:01.982Z,10.48
2023-03-18T20:48:29.735Z,10.27
2023-03-18T20:50:57.808Z,10.70
2023-03-18T20:53:28.348Z,9.23
2023-03-18T20:55:56.071Z,8.40
2023-03-18T20:58:26.871Z,11.15
2023-03-18T21:00:54.717Z,9.63
2023-03-18T21:03:31.399Z,9.88
2023-03-18T21:06:03.061Z,9.77
2023-03-18T21:08:32.471Z,7.60
2023-03-18T21:11:02.074Z,8.18
2023-03-18T21:13:38.058Z,10.48
2023-03-18T21:16:12.610Z,7.38
2023-03-18T21:18:41.610Z,6.70
2023-03-18T21:21:38.176Z,5.68
2023-03-18T21:24:26.400Z,8.13
2023-03-18T21:27:04.384Z,7.22
2023-03-18T21:29:32.888Z,7.93
2023-03-18T21:32:01.843Z,8.38
2023-03-18T21:34:29.037Z,6.78
2023-03-18T21:36:56.699Z,8.40
2023-03-18T21:39:23.930Z,6.40
2023-03-18T21:41:51.688Z,6.90
2023-03-18T21:44:18.821Z,7.13
2023-03-18T21:46:46.017Z,7.30
2023-03-18T21:49:13.320Z,6.97
2023-03-18T21:51:41.159Z,6.45
2023-03-18T21:54:26.647Z,6.28
2023-03-18T21:56:53.814Z,6.63
2023-03-18T21:59:21.027Z,9.20
2023-03-18T22:01:48.299Z,9.30
2023-03-18T22:04:15.711Z,8.15
2023-03-18T22:06:43.004Z,8.52
2023-03-18T22:09:10.149Z,9.15
2023-03-18T22:11:37.352Z,8.07
2023-03-18T22:14:04.546Z,7.15
2023-03-18T22:16:31.704Z,5.28
2023-03-18T22:18:58.862Z,5.07
2023-03-18T22:21:27.757Z,3.80
2023-03-18T22:23:57.468Z,3.63
2023-03-18T22:26:24.746Z,3.65
2023-03-18T22:28:51.802Z,4.53
2023-03-18T22:31:26.878Z,5.35
2023-03-18T22:33:54.825Z,8.55
2023-03-18T22:36:23.279Z,6.55
2023-03-18T22:38:50.602Z,6.40
2023-03-18T22:41:29.756Z,5.22
2023-03-18T22:43:59.233Z,4.70
2023-03-18T22:46:27.773Z,4.55
2023-03-18T22:48:55.161Z,5.43
2023-03-18T22:51:27.810Z,6.20
2023-03-18T22:53:55.487Z,5.82
2023-03-18T22:56:23.249Z,5.65
2023-03-18T22:58:50.978Z,4.82
2023-03-18T23:01:22.651Z,5.05
2023-03-18T23:03:49.959Z,5.07
2023-03-18T23:06:23.054Z,4.82
2023-03-18T23:08:50.273Z,4.50
2023-03-18T23:11:17.918Z,3.97
2023-03-18T23:13:51.606Z,4.85
2023-03-18T23:16:21.219Z,4.15
2023-03-18T23:18:49.360Z,4.35
2023-03-18T23:21:23.068Z,3.80
2023-03-18T23:23:51.815Z,4.20
2023-03-18T23:26:19.123Z,5.20
2023-03-18T23:28:46.446Z,4.90
2023-03-18T23:31:15.664Z,4.82
2023-03-18T23:33:43.657Z,4.45
2023-03-18T23:36:11.535Z,5.53
2023-03-18T23:38:38.900Z,5.40
2023-03-18T23:41:06.612Z,6.35
2023-03-18T23:43:33.773Z,5.85
2023-03-18T23:46:01.704Z,5.47
2023-03-18T23:48:29.134Z,5.38
2023-03-18T23:50:56.415Z,5.78
2023-03-18T23:53:23.690Z,6.30
2023-03-18T23:55:50.953Z,7.20
2023-03-18T23:58:18.202Z,7.00
